Time;durP1;ratioP1;P1;durP2;ratioP2;P2;SDS_P1;SDS_P2;PMS_P1;PMS_P2;Temp;Humidity;BMP_temperature;BMP_pressure;BME280_temperature;BME280_humidity;BME280_pressure;Samples;Min_cycle;Max_cycle;Signal;HPM_P1;HPM_P2
2022/06/22 00:01:00;;;;;;;4.10;2.80;;;;;;;;;;8334359;28;20042;-83
2022/06/22 00:05:06;;;;;;;4.10;2.78;;;;;;;;;;8334369;28;20131;-82
2022/06/22 00:09:22;;;;;;;6.72;3.20;;;;;;;;;;8348287;28;20425;-82
2022/06/22 00:13:28;;;;;;;5.85;3.08;;;;;;;;;;8332348;28;20072;-82
2022/06/22 00:17:37;;;;;;;4.03;2.88;;;;;;;;;;8333717;28;20049;-82
2022/06/22 00:21:41;;;;;;;6.15;3.47;;;;;;;;;;8333619;28;20056;-82
2022/06/22 00:25:44;;;;;;;5.13;3.22;;;;;;;;;;8344044;28;20049;-82
2022/06/22 00:30:01;;;;;;;5.43;3.17;;;;;;;;;;8335084;28;20477;-82
2022/06/22 00:34:16;;;;;;;4.93;3.15;;;;;;;;;;8339561;28;20061;-82
2022/06/22 00:38:22;;;;;;;6.40;3.38;;;;;;;;;;8346873;28;20041;-82
2022/06/22 00:42:31;;;;;;;6.00;3.10;;;;;;;;;;8330541;28;20045;-83
2022/06/22 00:46:35;;;;;;;7.07;3.35;;;;;;;;;;8326977;28;20045;-83
2022/06/22 00:50:43;;;;;;;5.03;3.10;;;;;;;;;;8306327;28;20042;-88
2022/06/22 00:54:47;;;;;;;5.60;3.40;;;;;;;;;;8314428;28;20049;-82
2022/06/22 00:58:57;;;;;;;5.63;3.08;;;;;;;;;;8308409;28;20129;-89
2022/06/22 01:03:05;;;;;;;4.95;2.97;;;;;;;;;;8326197;28;20049;-89
2022/06/22 01:07:17;;;;;;;5.88;3.58;;;;;;;;;;8330423;28;20038;-83
2022/06/22 01:15:51;;;;;;;5.80;3.55;;;;;;;;;;8318159;28;20397;-83
2022/06/22 01:20:03;;;;;;;6.05;3.28;;;;;;;;;;8331979;28;20421;-83
2022/06/22 01:24:23;;;;;;;5.75;3.17;;;;;;;;;;8343870;28;20033;-82
2022/06/22 01:28:27;;;;;;;6.50;3.47;;;;;;;;;;8345680;28;20044;-83
2022/06/22 01:32:32;;;;;;;5.78;3.47;;;;;;;;;;8337539;28;20037;-83
2022/06/22 01:36:35;;;;;;;8.57;3.53;;;;;;;;;;8338861;28;20053;-83
2022/06/22 01:40:45;;;;;;;6.53;3.63;;;;;;;;;;8331270;28;20056;-83
2022/06/22 01:44:56;;;;;;;6.63;3.65;;;;;;;;;;8331972;28;20045;-83
2022/06/22 01:49:01;;;;;;;7.72;3.55;;;;;;;;;;8331497;28;20057;-84
2022/06/22 01:53:13;;;;;;;7.93;3.60;;;;;;;;;;8345327;28;20041;-84
2022/06/22 01:57:21;;;;;;;11.23;4.18;;;;;;;;;;8330847;28;20100;-83
2022/06/22 02:01:33;;;;;;;6.93;3.58;;;;;;;;;;8331081;28;20374;-94
2022/06/22 02:05:42;;;;;;;7.35;4.10;;;;;;;;;;8330923;28;20103;-83
2022/06/22 02:09:57;;;;;;;9.05;4.22;;;;;;;;;;8330724;28;20045;-83
2022/06/22 02:14:08;;;;;;;7.75;5.20;;;;;;;;;;8345446;28;20041;-83
2022/06/22 02:18:15;;;;;;;9.48;4.05;;;;;;;;;;8342516;28;20049;-94
2022/06/22 02:22:18;;;;;;;7.15;4.57;;;;;;;;;;8343503;28;20056;-89
2022/06/22 02:26:26;;;;;;;7.13;4.07;;;;;;;;;;8330796;28;20057;-87
2022/06/22 02:30:29;;;;;;;7.88;5.63;;;;;;;;;;8344344;28;20052;-84
2022/06/22 02:34:34;;;;;;;10.82;6.32;;;;;;;;;;8330279;28;20041;-83
2022/06/22 02:38:38;;;;;;;22.40;12.95;;;;;;;;;;8334172;28;20058;-83
2022/06/22 02:47:15;;;;;;;31.60;16.15;;;;;;;;;;8336705;28;20183;-83
2022/06/22 02:51:26;;;;;;;25.73;12.88;;;;;;;;;;8336577;28;20401;-94
2022/06/22 02:55:36;;;;;;;26.30;11.40;;;;;;;;;;8336429;28;20056;-84
2022/06/22 02:59:38;;;;;;;21.23;11.30;;;;;;;;;;8350726;28;20748;-84
2022/06/22 03:03:43;;;;;;;16.88;10.05;;;;;;;;;;8336364;28;20055;-95
2022/06/22 03:07:51;;;;;;;20.13;10.07;;;;;;;;;;8336688;28;20061;-92
2022/06/22 03:11:58;;;;;;;16.80;8.48;;;;;;;;;;8335775;28;20049;-84
2022/06/22 03:16:00;;;;;;;23.15;11.13;;;;;;;;;;8335457;28;20485;-84
2022/06/22 03:20:07;;;;;;;22.38;11.25;;;;;;;;;;8335499;28;20543;-95
2022/06/22 03:24:18;;;;;;;18.45;9.68;;;;;;;;;;8335358;28;20052;-89
2022/06/22 03:28:26;;;;;;;18.13;10.77;;;;;;;;;;8335788;28;20042;-84
2022/06/22 03:32:32;;;;;;;15.10;8.75;;;;;;;;;;8334995;28;20052;-85
2022/06/22 03:36:41;;;;;;;16.98;7.72;;;;;;;;;;8334925;28;20527;-85
2022/06/22 03:40:49;;;;;;;10.23;5.70;;;;;;;;;;8334681;28;20059;-88
2022/06/22 03:44:56;;;;;;;8.15;4.57;;;;;;;;;;8334604;28;20049;-94
2022/06/22 03:49:03;;;;;;;8.73;5.10;;;;;;;;;;8333052;28;20141;-85
2022/06/22 03:53:12;;;;;;;8.48;5.32;;;;;;;;;;8334183;28;20060;-85
2022/06/22 03:57:19;;;;;;;8.07;5.00;;;;;;;;;;8334281;28;20071;-94
2022/06/22 04:01:23;;;;;;;7.55;4.57;;;;;;;;;;8333944;28;20370;-85
2022/06/22 04:05:32;;;;;;;8.68;4.65;;;;;;;;;;8333786;28;20049;-85
2022/06/22 04:09:35;;;;;;;9.23;6.00;;;;;;;;;;8334518;28;20046;-85
2022/06/22 04:13:44;;;;;;;9.32;5.50;;;;;;;;;;8333471;28;20046;-85
2022/06/22 04:17:51;;;;;;;9.75;6.55;;;;;;;;;;8333492;28;20477;-85
2022/06/22 04:21:58;;;;;;;12.00;6.93;;;;;;;;;;8332709;28;20152;-84
2022/06/22 04:26:07;;;;;;;9.77;6.57;;;;;;;;;;8320209;28;20507;-85
2022/06/22 04:30:17;;;;;;;12.80;6.32;;;;;;;;;;8333280;28;20045;-84
2022/06/22 04:34:28;;;;;;;17.88;10.07;;;;;;;;;;8331914;28;20041;-84
2022/06/22 04:38:37;;;;;;;11.98;8.75;;;;;;;;;;8320396;28;20104;-92
2022/06/22 04:42:41;;;;;;;15.00;9.82;;;;;;;;;;8332713;28;20409;-85
2022/06/22 04:46:50;;;;;;;15.35;10.35;;;;;;;;;;8332416;28;20045;-84
2022/06/22 04:50:58;;;;;;;12.68;6.88;;;;;;;;;;8332930;28;20481;-84
2022/06/22 04:55:04;;;;;;;11.27;6.70;;;;;;;;;;8332556;28;20103;-94
2022/06/22 04:59:12;;;;;;;13.32;7.28;;;;;;;;;;8331383;28;20142;-84
2022/06/22 05:03:19;;;;;;;8.65;5.55;;;;;;;;;;8319780;28;20033;-85
2022/06/22 05:07:35;;;;;;;11.88;6.20;;;;;;;;;;8328547;28;20110;-85
2022/06/22 05:11:43;;;;;;;22.00;9.52;;;;;;;;;;8319263;28;20049;-87
2022/06/22 05:15:49;;;;;;;16.38;8.02;;;;;;;;;;8328770;28;20107;-84
2022/06/22 05:19:58;;;;;;;8.98;5.55;;;;;;;;;;8328604;28;20413;-96
2022/06/22 05:24:06;;;;;;;6.65;4.25;;;;;;;;;;8331343;28;20465;-86
2022/06/22 05:28:12;;;;;;;10.00;4.32;;;;;;;;;;8332014;28;20049;-84
2022/06/22 05:32:17;;;;;;;6.93;3.80;;;;;;;;;;8332262;28;20048;-84
2022/06/22 05:36:26;;;;;;;6.50;3.95;;;;;;;;;;8319921;28;20037;-83
2022/06/22 05:40:32;;;;;;;11.48;4.75;;;;;;;;;;8331664;28;20141;-83
2022/06/22 05:44:35;;;;;;;7.93;4.40;;;;;;;;;;8331379;28;20072;-83
2022/06/22 05:48:43;;;;;;;9.13;4.78;;;;;;;;;;8331345;28;20042;-83
2022/06/22 05:52:50;;;;;;;13.43;5.05;;;;;;;;;;8331353;28;20045;-83
2022/06/22 05:57:01;;;;;;;15.48;5.75;;;;;;;;;;8331208;28;20048;-84
2022/06/22 06:01:12;;;;;;;17.40;6.68;;;;;;;;;;8345607;28;20037;-83
2022/06/22 06:05:23;;;;;;;9.52;4.85;;;;;;;;;;8331286;28;20046;-83
2022/06/22 06:09:29;;;;;;;12.05;5.43;;;;;;;;;;8328059;28;20049;-83
2022/06/22 06:13:35;;;;;;;11.65;4.60;;;;;;;;;;8331756;28;20462;-83
2022/06/22 06:17:43;;;;;;;7.70;2.95;;;;;;;;;;8329584;28;20061;-90
2022/06/22 06:21:47;;;;;;;13.07;3.83;;;;;;;;;;8322737;28;20507;-91
2022/06/22 06:30:18;;;;;;;15.70;3.55;;;;;;;;;;8324509;28;20065;-85
2022/06/22 06:34:28;;;;;;;11.05;5.03;;;;;;;;;;8319214;28;20520;-86
2022/06/22 06:38:39;;;;;;;9.38;3.88;;;;;;;;;;8316972;28;20069;-89
2022/06/22 06:42:50;;;;;;;5.53;3.15;;;;;;;;;;8321246;28;20089;-90
2022/06/22 06:47:05;;;;;;;4.57;2.05;;;;;;;;;;8311276;28;20080;-89
2022/06/22 06:51:14;;;;;;;3.58;1.90;;;;;;;;;;8303741;28;20498;-92
2022/06/22 06:55:31;;;;;;;3.53;1.77;;;;;;;;;;8310491;28;20052;-87
2022/06/22 06:59:39;;;;;;;4.97;2.20;;;;;;;;;;8318973;28;20046;-89
2022/06/22 07:03:47;;;;;;;4.22;1.92;;;;;;;;;;8301688;28;20046;-92
2022/06/22 07:07:55;;;;;;;4.53;1.80;;;;;;;;;;8325195;28;20096;-91
2022/06/22 07:12:06;;;;;;;4.10;2.05;;;;;;;;;;8327358;28;20088;-90
2022/06/22 07:16:15;;;;;;;14.80;2.93;;;;;;;;;;8327088;28;20050;-90
2022/06/22 07:20:24;;;;;;;7.07;2.58;;;;;;;;;;8339401;28;20304;-88
2022/06/22 07:24:34;;;;;;;4.30;1.98;;;;;;;;;;8362616;28;20049;-89
2022/06/22 07:28:44;;;;;;;3.00;1.90;;;;;;;;;;8331117;28;20053;-90
2022/06/22 07:32:59;;;;;;;2.65;1.73;;;;;;;;;;8340668;28;20049;-85
2022/06/22 07:37:14;;;;;;;2.92;1.80;;;;;;;;;;8327290;28;20069;-89
2022/06/22 07:41:22;;;;;;;4.38;1.90;;;;;;;;;;8312283;28;20126;-83
2022/06/22 07:45:30;;;;;;;2.78;1.85;;;;;;;;;;8330945;28;20050;-85
2022/06/22 07:49:39;;;;;;;3.45;1.95;;;;;;;;;;8348196;28;20052;-90
2022/06/22 07:53:50;;;;;;;2.38;1.80;;;;;;;;;;8338263;28;20046;-89
2022/06/22 07:58:08;;;;;;;4.53;2.00;;;;;;;;;;8346854;28;20051;-92
2022/06/22 08:02:17;;;;;;;2.58;1.73;;;;;;;;;;8344743;28;20059;-90
2022/06/22 08:06:29;;;;;;;4.85;1.90;;;;;;;;;;8319790;28;20041;-92
2022/06/22 08:10:41;;;;;;;4.65;2.00;;;;;;;;;;8339060;28;20057;-89
2022/06/22 08:14:52;;;;;;;3.30;1.85;;;;;;;;;;8322568;28;20052;-87
2022/06/22 08:18:56;;;;;;;2.77;1.53;;;;;;;;;;8334012;28;20114;-87
2022/06/22 08:23:04;;;;;;;3.47;1.90;;;;;;;;;;8329144;28;20045;-90
2022/06/22 08:27:09;;;;;;;3.58;1.95;;;;;;;;;;8342647;28;20057;-89
2022/06/22 08:31:14;;;;;;;3.88;2.08;;;;;;;;;;8330604;28;20109;-86
2022/06/22 08:35:23;;;;;;;6.80;2.00;;;;;;;;;;8346434;28;20396;-88
2022/06/22 08:39:34;;;;;;;3.25;2.00;;;;;;;;;;8319262;28;20421;-91
2022/06/22 08:43:48;;;;;;;3.28;1.83;;;;;;;;;;8332936;28;20051;-87
2022/06/22 08:48:15;;;;;;;4.65;1.95;;;;;;;;;;8333436;28;20072;-89
2022/06/22 08:52:41;;;;;;;3.53;2.10;;;;;;;;;;8346816;28;20053;-84
2022/06/22 08:56:56;;;;;;;3.72;2.22;;;;;;;;;;8315898;28;20057;-88
2022/06/22 09:01:07;;;;;;;4.32;2.10;;;;;;;;;;8339524;28;20053;-88
2022/06/22 09:05:25;;;;;;;4.07;2.00;;;;;;;;;;8334125;28;20049;-91
2022/06/22 09:09:55;;;;;;;3.08;2.10;;;;;;;;;;8319608;28;20052;-89
2022/06/22 09:14:25;;;;;;;4.03;2.10;;;;;;;;;;8346241;28;20389;-88
2022/06/22 09:19:05;;;;;;;3.30;1.90;;;;;;;;;;8332498;28;20053;-89
2022/06/22 09:23:21;;;;;;;3.25;2.00;;;;;;;;;;8320502;28;20476;-84
2022/06/22 09:27:38;;;;;;;2.83;1.92;;;;;;;;;;8332426;28;20408;-89
2022/06/22 09:32:07;;;;;;;6.05;2.30;;;;;;;;;;8347244;28;20496;-90
2022/06/22 09:36:57;;;;;;;3.88;1.98;;;;;;;;;;8335984;28;20412;-90
2022/06/22 09:41:08;;;;;;;6.23;1.97;;;;;;;;;;8332792;28;20053;-93
2022/06/22 09:45:34;;;;;;;5.80;2.50;;;;;;;;;;8318693;28;20072;-88
2022/06/22 09:50:08;;;;;;;3.22;1.70;;;;;;;;;;8326822;28;20132;-85
2022/06/22 09:59:46;;;;;;;4.90;1.80;;;;;;;;;;8206442;28;20102;-91
2022/06/22 10:04:33;;;;;;;4.80;1.67;;;;;;;;;;8276574;28;20397;-90
2022/06/22 10:09:09;;;;;;;4.55;1.88;;;;;;;;;;8311892;28;20041;-92
2022/06/22 10:13:45;;;;;;;2.30;1.75;;;;;;;;;;8322315;28;20050;-93
2022/06/22 10:18:27;;;;;;;2.90;1.73;;;;;;;;;;8352900;28;20129;-86
2022/06/22 10:22:47;;;;;;;3.83;1.90;;;;;;;;;;8326075;28;20490;-87
2022/06/22 10:27:13;;;;;;;4.10;2.08;;;;;;;;;;8331262;28;20079;-87
2022/06/22 10:31:25;;;;;;;5.22;2.10;;;;;;;;;;8320405;28;20049;-91
2022/06/22 10:35:49;;;;;;;4.18;1.85;;;;;;;;;;8336907;28;20099;-86
2022/06/22 10:45:11;;;;;;;2.10;1.73;;;;;;;;;;8299235;28;20050;-90
2022/06/22 10:49:44;;;;;;;1.60;1.50;;;;;;;;;;8320145;28;20049;-89
2022/06/22 10:54:22;;;;;;;2.83;1.40;;;;;;;;;;8295472;28;20107;-87
2022/06/22 10:58:42;;;;;;;3.03;1.70;;;;;;;;;;8329150;28;20042;-87
2022/06/22 11:03:24;;;;;;;3.05;1.70;;;;;;;;;;8327277;28;20056;-87
2022/06/22 11:07:52;;;;;;;3.00;1.90;;;;;;;;;;8335799;28;20045;-89
2022/06/22 11:12:25;;;;;;;3.47;1.80;;;;;;;;;;8336184;28;20096;-87
2022/06/22 11:16:35;;;;;;;;;;;;;;;;;;8336553;28;20049;-84
2022/06/22 11:21:02;;;;;;;2.25;1.50;;;;;;;;;;8339990;28;19931;-89
2022/06/22 11:35:38;;;;;;;3.63;1.55;;;;;;;;;;8324517;28;20059;-91
2022/06/22 11:39:57;;;;;;;;;;;;;;;;;;8333832;28;20129;-85
2022/06/22 11:44:20;;;;;;;3.38;1.58;;;;;;;;;;8360870;28;19924;-89
2022/06/22 11:49:03;;;;;;;3.25;1.42;;;;;;;;;;8302976;28;20042;-88
2022/06/22 11:53:23;;;;;;;4.15;1.70;;;;;;;;;;8299325;28;20057;-92
2022/06/22 11:57:47;;;;;;;2.92;1.50;;;;;;;;;;8334635;28;20057;-91
2022/06/22 12:02:16;;;;;;;1.92;1.52;;;;;;;;;;8314470;28;20060;-91
2022/06/22 12:06:45;;;;;;;4.45;1.60;;;;;;;;;;8337678;28;20056;-85
2022/06/22 12:10:50;;;;;;;3.15;1.67;;;;;;;;;;8323803;28;20050;-82
2022/06/22 12:15:09;;;;;;;2.72;1.48;;;;;;;;;;8312862;28;20482;-90
2022/06/22 12:19:26;;;;;;;3.90;1.65;;;;;;;;;;8303952;28;20041;-88
2022/06/22 12:23:42;;;;;;;4.18;1.80;;;;;;;;;;8326723;28;20082;-90
2022/06/22 12:27:53;;;;;;;2.63;1.50;;;;;;;;;;8318281;28;20182;-94
2022/06/22 12:32:02;;;;;;;3.90;1.70;;;;;;;;;;8331459;28;20050;-88
2022/06/22 12:36:14;;;;;;;5.40;1.67;;;;;;;;;;8333219;28;20068;-91
2022/06/22 12:40:22;;;;;;;2.60;1.63;;;;;;;;;;8326280;28;20093;-84
2022/06/22 12:44:52;;;;;;;2.47;1.85;;;;;;;;;;8318210;28;20056;-83
2022/06/22 12:49:21;;;;;;;2.25;1.65;;;;;;;;;;8309236;28;20100;-85
2022/06/22 12:53:33;;;;;;;2.83;1.35;;;;;;;;;;8298433;28;20485;-88
2022/06/22 12:57:45;;;;;;;2.13;1.35;;;;;;;;;;8294408;28;20412;-83
2022/06/22 13:01:49;;;;;;;2.65;1.30;;;;;;;;;;8286853;28;20069;-88
2022/06/22 13:05:56;;;;;;;4.10;1.65;;;;;;;;;;8321231;28;20053;-88
2022/06/22 13:14:46;;;;;;;3.53;1.58;;;;;;;;;;8504834;23;20511;-90
2022/06/22 13:18:57;;;;;;;5.80;1.50;;;;;;;;;;8314933;28;21007;-91
2022/06/22 13:23:12;;;;;;;;;;;;;;;;;;8325148;28;20073;-91
2022/06/22 13:27:43;;;;;;;3.47;1.52;;;;;;;;;;8314284;28;20427;-86
2022/06/22 13:31:56;;;;;;;4.00;1.65;;;;;;;;;;8321887;28;20496;-89
2022/06/22 13:36:09;;;;;;;2.50;1.38;;;;;;;;;;8324228;28;20057;-91
2022/06/22 13:40:29;;;;;;;3.72;1.40;;;;;;;;;;8314927;28;20807;-82
2022/06/22 13:45:14;;;;;;;2.30;1.58;;;;;;;;;;8322096;28;20045;-90
2022/06/22 13:49:31;;;;;;;1.48;1.13;;;;;;;;;;8326416;28;20044;-86
2022/06/22 13:54:26;;;;;;;2.13;1.20;;;;;;;;;;8324150;28;20042;-83
2022/06/22 13:58:46;;;;;;;1.60;1.30;;;;;;;;;;8283866;28;20053;-87
2022/06/22 14:03:17;;;;;;;3.15;1.40;;;;;;;;;;8322004;28;20044;-92
2022/06/22 14:07:34;;;;;;;2.88;1.20;;;;;;;;;;8320848;28;20045;-89
2022/06/22 14:11:46;;;;;;;6.90;2.33;;;;;;;;;;8329970;28;20069;-81
2022/06/22 14:16:08;;;;;;;2.70;1.40;;;;;;;;;;8330101;28;20053;-89
2022/06/22 14:20:35;;;;;;;2.67;1.65;;;;;;;;;;8329886;28;20045;-88
2022/06/22 14:24:52;;;;;;;6.95;1.95;;;;;;;;;;8322239;28;20308;-83
2022/06/22 14:29:12;;;;;;;1.65;1.40;;;;;;;;;;8329194;28;20056;-83
2022/06/22 14:33:31;;;;;;;9.93;2.90;;;;;;;;;;8301165;28;20045;-82
2022/06/22 14:43:26;;;;;;;3.92;1.80;;;;;;;;;;8318310;28;20057;-83
2022/06/22 14:47:46;;;;;;;3.72;1.48;;;;;;;;;;8336415;28;20049;-85
2022/06/22 14:51:58;;;;;;;5.43;1.85;;;;;;;;;;8336172;28;20618;-83
2022/06/22 14:56:14;;;;;;;5.80;2.25;;;;;;;;;;8334746;28;20495;-82
2022/06/22 15:00:40;;;;;;;3.65;1.73;;;;;;;;;;8336017;28;20096;-82
2022/06/22 15:04:58;;;;;;;2.83;1.70;;;;;;;;;;8335753;28;20045;-88
2022/06/22 15:09:10;;;;;;;3.45;1.88;;;;;;;;;;8336364;28;20056;-83
2022/06/22 15:13:37;;;;;;;4.25;1.80;;;;;;;;;;8334695;28;20492;-84
2022/06/22 15:18:03;;;;;;;2.22;1.70;;;;;;;;;;8333333;28;20053;-83
2022/06/22 15:22:23;;;;;;;2.97;1.50;;;;;;;;;;8323381;28;20071;-83
2022/06/22 15:26:44;;;;;;;3.13;1.80;;;;;;;;;;8334375;28;20046;-91
2022/06/22 15:31:23;;;;;;;5.22;1.70;;;;;;;;;;8334813;28;20053;-89
2022/06/22 15:35:44;;;;;;;4.43;1.90;;;;;;;;;;8334790;28;20053;-81
2022/06/22 15:40:07;;;;;;;3.00;1.48;;;;;;;;;;8326809;28;20049;-82
2022/06/22 15:44:39;;;;;;;3.17;1.60;;;;;;;;;;8330596;28;20508;-90
2022/06/22 15:49:10;;;;;;;4.65;1.98;;;;;;;;;;8334225;28;20055;-84
2022/06/22 15:53:32;;;;;;;3.25;1.48;;;;;;;;;;8316051;28;20041;-81
2022/06/22 15:58:07;;;;;;;4.28;1.60;;;;;;;;;;8334225;28;20468;-88
2022/06/22 16:07:41;;;;;;;2.83;1.95;;;;;;;;;;8334282;28;20045;-87
2022/06/22 16:16:35;;;;;;;4.55;2.00;;;;;;;;;;8333446;28;20042;-84
2022/06/22 16:20:59;;;;;;;2.83;1.67;;;;;;;;;;8333374;28;20064;-86
2022/06/22 16:25:27;;;;;;;2.97;1.75;;;;;;;;;;8332765;28;20049;-84
2022/06/22 16:29:50;;;;;;;4.75;1.83;;;;;;;;;;8332705;28;20038;-86
2022/06/22 16:34:04;;;;;;;3.63;1.60;;;;;;;;;;8333041;28;20065;-82
2022/06/22 16:38:13;;;;;;;4.07;1.63;;;;;;;;;;8333224;28;20049;-83
2022/06/22 16:42:27;;;;;;;3.30;1.90;;;;;;;;;;8316115;28;20042;-82
2022/06/22 16:47:21;;;;;;;5.50;1.80;;;;;;;;;;8318077;28;20068;-80
2022/06/22 16:51:33;;;;;;;3.33;1.80;;;;;;;;;;8330733;28;20086;-85
2022/06/22 16:56:05;;;;;;;2.58;1.80;;;;;;;;;;8322177;28;20045;-81
2022/06/22 17:00:23;;;;;;;3.58;1.90;;;;;;;;;;8319904;28;20049;-80
2022/06/22 17:04:48;;;;;;;6.78;1.83;;;;;;;;;;8331821;28;20076;-81
2022/06/22 17:09:21;;;;;;;5.22;1.73;;;;;;;;;;8329272;28;20054;-82
2022/06/22 17:13:37;;;;;;;3.63;1.88;;;;;;;;;;8316678;28;20057;-80
2022/06/22 17:17:49;;;;;;;4.97;1.95;;;;;;;;;;8330580;28;20042;-80
2022/06/22 17:22:07;;;;;;;6.15;2.10;;;;;;;;;;8323647;28;20198;-83
2022/06/22 17:26:35;;;;;;;2.92;1.95;;;;;;;;;;8323602;28;20052;-85
2022/06/22 17:31:07;;;;;;;3.50;1.75;;;;;;;;;;8319499;28;20061;-83
2022/06/22 17:35:32;;;;;;;2.83;1.70;;;;;;;;;;8318282;28;20045;-85
2022/06/22 17:40:10;;;;;;;3.90;1.90;;;;;;;;;;8324784;28;20081;-81
2022/06/22 17:44:33;;;;;;;4.25;1.80;;;;;;;;;;8328415;28;20042;-82
2022/06/22 17:48:44;;;;;;;3.10;1.80;;;;;;;;;;8330133;28;20053;-82
2022/06/22 17:52:53;;;;;;;2.45;1.55;;;;;;;;;;8322798;28;20053;-82
2022/06/22 17:57:09;;;;;;;3.05;1.70;;;;;;;;;;8323748;28;20762;-85
2022/06/22 18:06:11;;;;;;;3.95;2.63;;;;;;;;;;8313061;28;20409;-82
2022/06/22 18:10:25;;;;;;;9.37;2.20;;;;;;;;;;8315780;28;20045;-82
2022/06/22 18:14:35;;;;;;;4.82;2.10;;;;;;;;;;8325729;28;20111;-81
2022/06/22 18:18:45;;;;;;;5.43;2.47;;;;;;;;;;8321510;28;20103;-86
2022/06/22 18:23:00;;;;;;;6.85;2.63;;;;;;;;;;8329916;28;20048;-86
2022/06/22 18:27:09;;;;;;;5.10;2.70;;;;;;;;;;8330040;28;20042;-87
2022/06/22 18:31:30;;;;;;;8.07;3.08;;;;;;;;;;8330121;28;20053;-80
2022/06/22 18:35:49;;;;;;;7.28;3.03;;;;;;;;;;8329465;28;20589;-85
2022/06/22 18:45:16;;;;;;;7.65;3.05;;;;;;;;;;8316949;28;20057;-82
2022/06/22 18:49:50;;;;;;;10.27;2.85;;;;;;;;;;8329817;28;20128;-89
2022/06/22 18:54:41;;;;;;;5.63;2.50;;;;;;;;;;8329525;28;20042;-85
2022/06/22 18:59:11;;;;;;;7.38;3.08;;;;;;;;;;8320380;28;20073;-80
2022/06/22 19:03:32;;;;;;;11.05;2.50;;;;;;;;;;8324783;28;20050;-83
2022/06/22 19:07:53;;;;;;;5.20;2.38;;;;;;;;;;8316181;28;20051;-81
2022/06/22 19:12:04;;;;;;;6.65;2.58;;;;;;;;;;8328288;28;20069;-84
2022/06/22 19:16:33;;;;;;;5.78;3.05;;;;;;;;;;8326317;28;20056;-87
2022/06/22 19:20:49;;;;;;;7.22;2.75;;;;;;;;;;8333100;28;20053;-82
2022/06/22 19:25:50;;;;;;;3.78;2.50;;;;;;;;;;8334788;28;20080;-89
2022/06/22 19:30:11;;;;;;;6.05;2.88;;;;;;;;;;8335047;28;20497;-88
2022/06/22 19:34:36;;;;;;;3.20;2.20;;;;;;;;;;8313187;28;20061;-90
2022/06/22 19:38:52;;;;;;;7.10;2.60;;;;;;;;;;8320332;28;20421;-81
2022/06/22 19:43:43;;;;;;;5.45;2.90;;;;;;;;;;8307265;28;20049;-85
2022/06/22 19:53:18;;;;;;;5.25;2.58;;;;;;;;;;8313795;28;20052;-89
2022/06/22 19:57:22;;;;;;;7.32;2.60;;;;;;;;;;8333757;28;20045;-88
2022/06/22 20:01:31;;;;;;;7.03;3.00;;;;;;;;;;8334128;28;20540;-88
2022/06/22 20:05:38;;;;;;;4.72;2.72;;;;;;;;;;8333854;28;20107;-88
2022/06/22 20:09:53;;;;;;;4.15;2.72;;;;;;;;;;8319908;28;20073;-88
2022/06/22 20:14:04;;;;;;;5.10;3.17;;;;;;;;;;8333679;28;20497;-87
2022/06/22 20:18:11;;;;;;;4.70;2.83;;;;;;;;;;8333579;28;20045;-88
2022/06/22 20:22:23;;;;;;;4.88;3.08;;;;;;;;;;8333663;28;20049;-88
2022/06/22 20:26:38;;;;;;;7.87;3.50;;;;;;;;;;8313177;28;20054;-87
2022/06/22 20:30:52;;;;;;;6.22;3.53;;;;;;;;;;8324349;28;20053;-88
2022/06/22 20:35:25;;;;;;;3.92;2.95;;;;;;;;;;8333277;28;20041;-89
2022/06/22 20:39:28;;;;;;;4.57;3.20;;;;;;;;;;8328437;28;20044;-88
2022/06/22 20:43:41;;;;;;;5.97;3.65;;;;;;;;;;8324114;28;20145;-88
2022/06/22 20:47:58;;;;;;;4.70;3.30;;;;;;;;;;8332663;28;20209;-89
2022/06/22 20:52:09;;;;;;;5.32;3.30;;;;;;;;;;8332690;28;20065;-88
2022/06/22 20:56:18;;;;;;;6.20;3.40;;;;;;;;;;8318745;28;20044;-88
2022/06/22 21:00:23;;;;;;;4.80;3.38;;;;;;;;;;8332562;28;20037;-89
2022/06/22 21:04:29;;;;;;;6.22;3.63;;;;;;;;;;8332180;28;20504;-88
2022/06/22 21:08:33;;;;;;;7.35;3.33;;;;;;;;;;8332311;28;20096;-87
2022/06/22 21:12:55;;;;;;;5.88;3.30;;;;;;;;;;8320442;28;20046;-88
2022/06/22 21:17:06;;;;;;;8.15;3.58;;;;;;;;;;8317076;28;20093;-89
2022/06/22 21:21:13;;;;;;;5.25;3.42;;;;;;;;;;8330612;28;20054;-89
2022/06/22 21:25:27;;;;;;;7.57;3.60;;;;;;;;;;8316479;28;20103;-88
2022/06/22 21:29:34;;;;;;;6.78;3.40;;;;;;;;;;8330501;28;20057;-89
2022/06/22 21:33:51;;;;;;;8.02;3.80;;;;;;;;;;8329859;28;20128;-90
2022/06/22 21:38:00;;;;;;;7.50;3.70;;;;;;;;;;8330436;28;20057;-88
2022/06/22 21:42:13;;;;;;;8.02;3.67;;;;;;;;;;8312648;28;20041;-82
2022/06/22 21:46:30;;;;;;;4.95;3.30;;;;;;;;;;8315115;28;20046;-88
2022/06/22 21:51:08;;;;;;;6.35;3.58;;;;;;;;;;8327532;28;20128;-89
2022/06/22 21:55:24;;;;;;;7.93;3.78;;;;;;;;;;8326575;28;20042;-89
2022/06/22 21:59:49;;;;;;;5.60;3.78;;;;;;;;;;8329728;28;20418;-88
2022/06/22 22:04:00;;;;;;;9.82;4.18;;;;;;;;;;8329372;28;20049;-89
2022/06/22 22:08:09;;;;;;;7.30;3.92;;;;;;;;;;8329209;28;20050;-89
2022/06/22 22:12:16;;;;;;;5.35;3.75;;;;;;;;;;8284539;28;1298347;-89
2022/06/22 22:16:23;;;;;;;6.07;3.60;;;;;;;;;;8330360;28;20095;-90
2022/06/22 22:20:31;;;;;;;6.10;3.60;;;;;;;;;;8328989;28;20053;-89
2022/06/22 22:24:39;;;;;;;5.45;3.42;;;;;;;;;;8320997;28;20080;-87
2022/06/22 22:28:49;;;;;;;4.97;3.08;;;;;;;;;;8316262;28;20077;-85
2022/06/22 22:32:53;;;;;;;6.65;4.03;;;;;;;;;;8313726;28;20049;-89
2022/06/22 22:36:59;;;;;;;5.20;3.53;;;;;;;;;;8330043;28;20039;-87
2022/06/22 22:41:03;;;;;;;6.53;4.40;;;;;;;;;;8316170;28;20080;-86
2022/06/22 22:45:07;;;;;;;7.80;3.90;;;;;;;;;;8330504;28;20045;-89
2022/06/22 22:49:17;;;;;;;7.85;4.20;;;;;;;;;;8330271;28;20538;-88
2022/06/22 22:53:22;;;;;;;5.82;3.60;;;;;;;;;;8330341;28;20129;-89
2022/06/22 22:57:30;;;;;;;7.60;4.53;;;;;;;;;;8336689;28;20465;-89
2022/06/22 23:01:36;;;;;;;8.02;4.30;;;;;;;;;;8322191;28;20050;-88
2022/06/22 23:05:40;;;;;;;7.18;4.20;;;;;;;;;;8336647;28;20049;-87
2022/06/22 23:09:42;;;;;;;6.93;3.97;;;;;;;;;;8322286;28;20469;-85
2022/06/22 23:13:48;;;;;;;8.88;3.47;;;;;;;;;;8335533;28;20053;-80
2022/06/22 23:17:51;;;;;;;7.50;4.03;;;;;;;;;;8335586;28;20499;-80
2022/06/22 23:21:55;;;;;;;10.98;4.07;;;;;;;;;;8322897;28;20041;-89
2022/06/22 23:26:01;;;;;;;5.30;3.78;;;;;;;;;;8332701;28;20396;-80
2022/06/22 23:30:07;;;;;;;6.28;4.00;;;;;;;;;;8335481;28;20042;-80
2022/06/22 23:34:25;;;;;;;5.95;3.80;;;;;;;;;;8333661;28;20120;-88
2022/06/22 23:38:29;;;;;;;6.55;3.50;;;;;;;;;;8320913;28;20042;-87
2022/06/22 23:42:36;;;;;;;5.72;3.95;;;;;;;;;;8321308;28;20049;-90
2022/06/22 23:46:44;;;;;;;4.95;3.30;;;;;;;;;;8323582;28;20057;-89
2022/06/22 23:50:49;;;;;;;5.03;3.63;;;;;;;;;;8334334;28;20469;-89
2022/06/22 23:54:54;;;;;;;5.85;3.60;;;;;;;;;;8335608;28;20049;-90
2022/06/22 23:58:58;;;;;;;8.43;3.97;;;;;;;;;;8334778;28;20049;-90
